CheckWX is a tool to help pilots better visualize weather data.  It is not intended as a substitute for an official pre-flight weather briefing.

13:06:41 UTC

KBGF METAR
Winchester Municipal Airport
Winchester, Tennessee, USA
Current

12 mins ago

KBGF 181255Z AUTO 11005KT 10SM CLR 25/19 A3001 RMK A01
Observed
Aug-18 @ 12:55 UTC
Wind
  • 110° at 5 KTS
Visibility
10 SM
Flight Rules
VFR
Cloud Levels
  • Clear skies
Temperature
25°C / 77°F
Dewpoint
19°C / 66°F
Humidity
69%
Altimeter
30.01" Hg
Pressure
1016.22 hPa
Previous

52 mins ago

KBGF 181215Z AUTO 00000KT 10SM CLR 23/18 A3002 RMK A01
Observed
Aug-18 @ 12:15 UTC
Visibility
10 SM
Flight Rules
VFR
Cloud Levels
  • Clear skies
Temperature
23°C / 73°F
Dewpoint
18°C / 64°F
Humidity
74%
Altimeter
30.02" Hg
Pressure
1016.62 hPa
Previous

1 hour ago

KBGF 181155Z AUTO 00000KT 10SM CLR 22/18 A3001 RMK A01
Observed
Aug-18 @ 11:55 UTC
Visibility
10 SM
Flight Rules
VFR
Cloud Levels
  • Clear skies
Temperature
22°C / 72°F
Dewpoint
18°C / 64°F
Humidity
78%
Altimeter
30.01" Hg
Pressure
1016.22 hPa